Time;durP1;ratioP1;P1;durP2;ratioP2;P2;SDS_P1;SDS_P2;PMS_P1;PMS_P2;Temp;Humidity;BMP_temperature;BMP_pressure;BME280_temperature;BME280_humidity;BME280_pressure;Samples;Min_cycle;Max_cycle;Signal;HPM_P1;HPM_P2
2022/12/03 00:01:00;;;;;;;24.27;12.67;;;0.00;99.90;-0.30;101280.00;;;;4982694;27;117955;-68
2022/12/03 00:03:27;;;;;;;20.50;12.77;;;0.00;99.90;-0.30;101278.00;;;;4982764;28;107333;-70
2022/12/03 00:05:53;;;;;;;25.63;12.23;;;-0.20;99.90;-0.30;101284.00;;;;4988356;27;87806;-68
2022/12/03 00:08:18;;;;;;;17.93;11.70;;;0.20;99.90;-0.30;101279.00;;;;4976963;28;108368;-67
2022/12/03 00:10:44;;;;;;;21.93;13.27;;;0.10;99.90;-0.30;101278.00;;;;4975733;28;119438;-67
2022/12/03 00:13:10;;;;;;;21.43;11.70;;;0.10;99.90;-0.30;101274.00;;;;4977314;28;88031;-68
2022/12/03 00:15:36;;;;;;;24.20;13.03;;;0.10;99.90;-0.30;101267.00;;;;4962921;28;88814;-67
2022/12/03 00:18:01;;;;;;;24.83;13.93;;;0.10;99.90;-0.30;101278.00;;;;4990339;27;108732;-68
2022/12/03 00:20:27;;;;;;;22.13;12.20;;;0.00;99.90;-0.30;101277.00;;;;4991365;27;116871;-67
2022/12/03 00:22:53;;;;;;;22.77;12.83;;;0.90;99.90;-0.30;101271.00;;;;4977586;28;88797;-68
2022/12/03 00:25:18;;;;;;;27.30;12.30;;;0.10;99.90;-0.40;101266.00;;;;4975429;28;113961;-68
2022/12/03 00:27:44;;;;;;;22.57;11.73;;;0.10;99.90;-0.40;101271.00;;;;4971593;28;108009;-68
2022/12/03 00:30:11;;;;;;;19.23;12.40;;;0.00;99.90;-0.40;101276.00;;;;4987989;27;96434;-68
2022/12/03 00:32:37;;;;;;;23.93;12.73;;;-0.10;99.90;-0.40;101274.00;;;;4992736;27;88576;-67
2022/12/03 00:35:03;;;;;;;24.60;12.10;;;0.00;99.90;-0.40;101263.00;;;;4988641;27;96548;-68
2022/12/03 00:37:28;;;;;;;29.40;12.70;;;-0.10;99.90;-0.40;101276.00;;;;4991437;27;87940;-67
2022/12/03 00:39:54;;;;;;;20.03;12.70;;;0.00;99.90;-0.40;101276.00;;;;4973449;27;92041;-68
2022/12/03 00:42:20;;;;;;;27.07;12.47;;;-0.10;99.90;-0.50;101273.00;;;;4992494;27;118058;-67
2022/12/03 00:44:45;;;;;;;22.37;11.57;;;-0.10;99.90;-0.50;101266.00;;;;4988801;27;113513;-69
2022/12/03 00:47:11;;;;;;;23.50;12.53;;;0.00;99.90;-0.40;101273.00;;;;4970463;28;108114;-69
2022/12/03 00:49:37;;;;;;;22.23;13.00;;;-0.10;99.90;-0.50;101262.00;;;;4990683;27;88264;-68
2022/12/03 00:52:03;;;;;;;26.27;12.57;;;-0.10;99.90;-0.50;101285.00;;;;4991738;28;117618;-68
2022/12/03 00:54:30;;;;;;;25.47;11.30;;;-0.20;99.90;-0.50;101267.00;;;;4990582;27;112573;-67
2022/12/03 00:56:55;;;;;;;21.87;13.20;;;0.80;99.90;-0.50;101267.00;;;;4991740;27;87075;-67
2022/12/03 00:59:21;;;;;;;21.53;11.43;;;-0.20;99.90;-0.50;101271.00;;;;4978016;28;117048;-67
2022/12/03 01:01:47;;;;;;;21.63;14.03;;;-0.20;99.90;-0.50;101281.00;;;;4987646;27;117288;-67
2022/12/03 01:04:12;;;;;;;23.63;13.57;;;0.50;99.90;-0.50;101266.00;;;;4993072;27;88655;-67
2022/12/03 01:06:38;;;;;;;31.27;14.23;;;-0.10;99.90;-0.50;101270.00;;;;4990741;27;109525;-68
2022/12/03 01:09:04;;;;;;;22.80;12.77;;;-0.20;99.90;-0.50;101272.00;;;;4991364;27;111761;-68
2022/12/03 01:11:39;;;;;;;28.30;13.37;;;-0.10;99.90;-0.50;101271.00;;;;4991110;27;117257;-68
2022/12/03 01:14:10;;;;;;;29.63;14.67;;;0.00;99.90;-0.50;101271.00;;;;4991301;27;87987;-67
2022/12/03 01:16:37;;;;;;;28.57;14.83;;;-0.20;99.90;-0.50;101271.00;;;;4989718;27;88362;-69
2022/12/03 01:19:04;;;;;;;30.73;15.23;;;-0.20;99.90;-0.50;101261.00;;;;4991877;28;87793;-67
2022/12/03 01:21:30;;;;;;;29.77;14.03;;;-0.20;99.90;-0.50;101268.00;;;;4988921;28;88019;-67
2022/12/03 01:23:56;;;;;;;25.30;13.30;;;-0.20;99.90;-0.50;101262.00;;;;4989787;27;87731;-68
2022/12/03 01:26:22;;;;;;;22.93;12.30;;;0.00;99.90;-0.50;101264.00;;;;4976361;28;88224;-67
2022/12/03 01:28:47;;;;;;;23.00;12.93;;;0.20;99.90;-0.50;101270.00;;;;4974092;28;89493;-67
2022/12/03 01:33:57;;;;;;;21.57;13.40;;;0.80;99.90;-0.50;101276.00;;;;4976588;28;88262;-68
2022/12/03 01:36:23;;;;;;;19.20;11.37;;;-0.10;99.90;-0.50;101275.00;;;;4989608;27;108338;-68
2022/12/03 01:38:49;;;;;;;22.90;11.80;;;-0.20;99.90;-0.50;101268.00;;;;4973935;28;116731;-68
2022/12/03 01:41:21;;;;;;;24.10;13.17;;;-0.20;99.90;-0.60;101273.00;;;;4984715;27;117154;-67
2022/12/03 01:43:47;;;;;;;22.47;11.43;;;-0.20;99.90;-0.60;101268.00;;;;4968801;27;93670;-68
2022/12/03 01:46:18;;;;;;;23.20;11.77;;;0.90;99.90;-0.60;101261.00;;;;4979928;28;87158;-67
2022/12/03 01:48:45;;;;;;;20.23;12.53;;;-0.20;99.90;-0.60;101259.00;;;;4968968;28;88008;-67
2022/12/03 01:51:13;;;;;;;25.50;12.20;;;-0.30;99.90;-0.60;101264.00;;;;4987228;27;103484;-67
2022/12/03 01:53:39;;;;;;;18.17;10.80;;;-0.20;99.90;-0.60;101260.00;;;;4990180;27;88744;-67
2022/12/03 01:56:05;;;;;;;24.77;12.47;;;-0.30;99.90;-0.60;101253.00;;;;4976745;27;110182;-67
2022/12/03 01:58:31;;;;;;;21.47;11.93;;;-0.20;99.90;-0.60;101254.00;;;;4987619;27;109276;-66
2022/12/03 02:01:00;;;;;;;22.50;11.27;;;-0.30;99.90;-0.60;101253.00;;;;4987828;27;117048;-66
2022/12/03 02:03:27;;;;;;;19.70;11.60;;;-0.30;99.90;-0.60;101261.00;;;;4974426;28;100315;-68
2022/12/03 02:05:52;;;;;;;21.73;11.97;;;-0.30;99.90;-0.60;101256.00;;;;4992235;27;87931;-67
2022/12/03 02:08:45;;;;;;;24.50;11.40;;;-0.30;99.90;-0.70;101252.00;;;;4985378;28;88032;-67
2022/12/03 02:11:24;;;;;;;24.87;12.50;;;-0.30;99.90;-0.70;101257.00;;;;4949618;28;88184;-65
2022/12/03 02:13:56;;;;;;;24.03;11.73;;;0.40;99.90;-0.70;101247.00;;;;4973246;28;100059;-68
2022/12/03 02:16:21;;;;;;;24.90;12.67;;;-0.40;99.90;-0.60;101242.00;;;;4980071;28;100829;-67
2022/12/03 02:18:47;;;;;;;21.50;11.20;;;-0.40;99.90;-0.70;101242.00;;;;4974604;28;105827;-66
2022/12/03 02:21:28;;;;;;;20.50;11.33;;;-0.20;99.90;-0.70;101250.00;;;;4970135;28;118718;-67
2022/12/03 02:24:48;;;;;;;25.33;13.90;;;-0.30;99.90;-0.70;101262.00;;;;4959280;28;98629;-67
2022/12/03 02:27:13;;;;;;;22.97;12.60;;;-0.40;99.90;-0.60;101252.00;;;;4972738;28;96799;-66
2022/12/03 02:29:39;;;;;;;27.50;13.57;;;-0.20;99.90;-0.60;101251.00;;;;4978718;28;117204;-68
2022/12/03 02:32:05;;;;;;;29.77;12.30;;;-0.20;99.90;-0.60;101254.00;;;;4984839;27;115509;-68
2022/12/03 02:34:42;;;;;;;27.97;11.80;;;-0.30;99.90;-0.70;101252.00;;;;4994178;27;112289;-68
2022/12/03 02:37:14;;;;;;;20.67;11.43;;;-0.30;99.90;-0.60;101245.00;;;;4993907;27;87047;-67
2022/12/03 02:39:46;;;;;;;20.97;10.90;;;-0.30;99.90;-0.70;101249.00;;;;4987323;27;101334;-66
2022/12/03 02:45:03;;;;;;;26.80;11.47;;;0.60;99.90;-0.70;101258.00;;;;4974930;28;89047;-66
2022/12/03 02:47:31;;;;;;;21.43;10.73;;;-0.30;99.90;-0.70;101251.00;;;;4979673;27;87783;-67
2022/12/03 02:49:58;;;;;;;17.20;10.50;;;-0.30;99.90;-0.70;101253.00;;;;4991668;27;111779;-66
2022/12/03 02:52:23;;;;;;;23.13;12.27;;;0.10;99.90;-0.70;101257.00;;;;4989271;27;116461;-67
2022/12/03 02:54:49;;;;;;;21.03;13.57;;;-0.30;99.90;-0.60;101251.00;;;;4990238;28;112405;-68
2022/12/03 02:57:16;;;;;;;16.80;10.60;;;-0.30;99.90;-0.60;101245.00;;;;4981543;27;110403;-67
2022/12/03 02:59:44;;;;;;;22.63;11.47;;;-0.30;99.90;-0.70;101247.00;;;;4986054;27;93398;-67
2022/12/03 03:02:11;;;;;;;23.80;11.80;;;-0.30;99.90;-0.60;101258.00;;;;4978060;28;88276;-68
2022/12/03 03:04:38;;;;;;;21.70;11.40;;;-0.20;99.90;-0.70;101249.00;;;;4981631;28;87855;-66
2022/12/03 03:07:04;;;;;;;21.47;10.63;;;-0.30;99.90;-0.60;101248.00;;;;4993396;27;87950;-66
2022/12/03 03:09:30;;;;;;;28.67;12.70;;;-0.30;99.90;-0.70;101258.00;;;;4995057;27;89506;-67
2022/12/03 03:11:55;;;;;;;19.03;10.83;;;-0.30;99.90;-0.70;101265.00;;;;4992906;27;119365;-66
2022/12/03 03:14:21;;;;;;;25.13;10.53;;;-0.30;99.90;-0.70;101261.00;;;;4989943;27;111955;-65
2022/12/03 03:16:54;;;;;;;21.37;11.33;;;-0.30;99.90;-0.70;101258.00;;;;4991830;27;109725;-66
2022/12/03 03:19:24;;;;;;;15.00;10.07;;;0.40;99.90;-0.70;101264.00;;;;4992175;27;89215;-67
2022/12/03 03:21:52;;;;;;;17.00;10.13;;;-0.30;99.90;-0.70;101259.00;;;;4991137;28;88617;-66
2022/12/03 03:24:19;;;;;;;17.10;10.87;;;-0.30;99.90;-0.80;101264.00;;;;4989441;28;89201;-66
2022/12/03 03:26:44;;;;;;;15.30;8.87;;;-0.40;99.90;-0.70;101255.00;;;;4988962;28;86758;-66
2022/12/03 03:29:10;;;;;;;17.67;10.40;;;-0.40;99.90;-0.80;101245.00;;;;4993844;27;94550;-65
2022/12/03 03:31:37;;;;;;;16.97;11.00;;;0.60;99.90;-0.80;101245.00;;;;4988187;27;100477;-66
2022/12/03 03:34:03;;;;;;;16.10;10.50;;;1.00;99.90;-0.80;101242.00;;;;4977964;28;94301;-66
2022/12/03 03:36:30;;;;;;;22.10;12.30;;;-0.30;99.90;-0.80;101250.00;;;;4980857;28;94909;-66
2022/12/03 03:38:56;;;;;;;21.47;10.37;;;-0.50;99.90;-0.80;101237.00;;;;4977884;28;95990;-66
2022/12/03 03:41:22;;;;;;;20.80;10.37;;;-0.50;99.90;-0.80;101247.00;;;;4980964;28;90399;-65
2022/12/03 03:43:49;;;;;;;16.40;10.13;;;0.30;99.90;-0.80;101239.00;;;;4982190;28;105574;-69
2022/12/03 03:46:15;;;;;;;20.57;9.93;;;0.50;99.90;-0.80;101245.00;;;;4988436;27;87985;-65
2022/12/03 03:48:42;;;;;;;17.50;11.03;;;-0.40;99.90;-0.80;101257.00;;;;4975965;28;117844;-66
2022/12/03 03:51:09;;;;;;;19.00;10.90;;;-0.50;99.90;-0.80;101243.00;;;;4961327;28;108754;-66
2022/12/03 03:53:42;;;;;;;22.03;10.70;;;0.20;99.90;-0.80;101244.00;;;;4975911;27;90206;-66
2022/12/03 03:56:08;;;;;;;15.77;10.47;;;0.60;99.90;-0.80;101235.00;;;;4989820;27;87800;-65
2022/12/03 03:58:35;;;;;;;19.07;10.03;;;-0.50;99.90;-0.80;101244.00;;;;4975260;28;119620;-65
2022/12/03 04:01:00;;;;;;;17.23;10.13;;;-0.40;99.90;-0.80;101228.00;;;;4978246;27;108418;-66
2022/12/03 04:03:28;;;;;;;15.70;9.60;;;-0.40;99.90;-0.80;101236.00;;;;4990363;27;89294;-65
2022/12/03 04:05:54;;;;;;;17.03;10.43;;;0.20;99.90;-0.80;101236.00;;;;4981873;28;92377;-65
2022/12/03 04:08:19;;;;;;;16.83;9.63;;;-0.50;99.90;-0.80;101237.00;;;;4976258;27;98242;-65
2022/12/03 04:13:29;;;;;;;15.03;9.73;;;-0.50;99.90;-0.90;101235.00;;;;4991469;27;87861;-65
2022/12/03 04:15:55;;;;;;;12.53;9.23;;;-0.50;99.90;-0.80;101238.00;;;;4992168;27;98576;-66
2022/12/03 04:23:49;;;;;;;19.20;10.97;;;-0.40;99.90;-0.80;101229.00;;;;4990394;28;88796;-66
2022/12/03 04:28:59;;;;;;;23.10;11.67;;;-0.50;99.90;-0.70;101229.00;;;;4987893;28;88018;-65
2022/12/03 04:36:54;;;;;;;18.93;11.30;;;-0.40;99.90;-0.70;101225.00;;;;4987572;28;87932;-65
2022/12/03 04:39:19;;;;;;;19.07;10.63;;;-0.40;99.90;-0.70;101225.00;;;;4987675;28;109416;-66
2022/12/03 04:41:45;;;;;;;17.53;11.90;;;-0.40;99.90;-0.80;101221.00;;;;4988191;28;116848;-66
2022/12/03 04:46:55;;;;;;;21.30;11.27;;;-0.40;99.90;-0.80;101221.00;;;;4978450;28;87728;-67
2022/12/03 04:49:21;;;;;;;17.77;11.07;;;-0.50;99.90;-0.80;101217.00;;;;4981771;28;114492;-65
2022/12/03 04:51:47;;;;;;;22.23;11.33;;;-0.40;99.90;-0.80;101208.00;;;;4972693;28;118397;-66
2022/12/03 04:54:13;;;;;;;20.63;10.80;;;-0.40;99.90;-0.80;101220.00;;;;4984884;27;87963;-65
2022/12/03 04:56:38;;;;;;;23.70;11.77;;;-0.40;99.90;-0.70;101212.00;;;;4985029;28;87891;-66
2022/12/03 04:59:04;;;;;;;16.53;11.90;;;-0.40;99.90;-0.70;101216.00;;;;4988204;28;117772;-66
2022/12/03 05:01:30;;;;;;;21.50;11.80;;;-0.40;99.90;-0.70;101213.00;;;;4990611;27;87539;-66
2022/12/03 05:03:55;;;;;;;22.07;10.83;;;-0.30;99.90;-0.70;101209.00;;;;4976955;28;113108;-66
2022/12/03 05:06:21;;;;;;;22.57;10.50;;;-0.40;99.90;-0.80;101205.00;;;;4987462;27;107561;-65
2022/12/03 05:08:47;;;;;;;22.47;11.73;;;-0.40;99.90;-0.80;101205.00;;;;4990868;28;88047;-66
2022/12/03 05:11:13;;;;;;;20.43;10.67;;;-0.50;99.90;-0.80;101194.00;;;;4974996;28;88882;-66
2022/12/03 05:13:38;;;;;;;17.63;11.93;;;-0.50;99.90;-0.80;101201.00;;;;4981996;28;101427;-64
2022/12/03 05:16:04;;;;;;;16.63;11.00;;;-0.40;99.90;-0.80;101186.00;;;;4983034;27;108200;-66
2022/12/03 05:18:30;;;;;;;15.53;9.47;;;-0.40;99.90;-0.80;101204.00;;;;4988344;27;110591;-66
2022/12/03 05:20:55;;;;;;;18.27;10.33;;;-0.30;99.90;-0.80;101199.00;;;;4980607;28;116953;-64
2022/12/03 05:23:21;;;;;;;22.07;11.33;;;-0.20;99.90;-0.80;101206.00;;;;4988622;28;110552;-65
2022/12/03 05:25:47;;;;;;;21.30;11.10;;;-0.40;99.90;-0.80;101201.00;;;;4972986;28;87772;-65
2022/12/03 05:28:13;;;;;;;18.30;10.70;;;-0.40;99.90;-0.80;101200.00;;;;4979849;28;97602;-65
2022/12/03 05:30:38;;;;;;;26.23;12.37;;;-0.40;99.90;-0.80;101201.00;;;;4985033;27;117669;-66
2022/12/03 05:33:04;;;;;;;14.53;9.73;;;-0.40;99.90;-0.80;101203.00;;;;4983749;27;112984;-66
2022/12/03 05:35:30;;;;;;;18.10;10.73;;;-0.50;99.90;-0.90;101195.00;;;;4987250;28;87810;-65
2022/12/03 05:37:55;;;;;;;20.90;12.07;;;-0.40;99.90;-0.90;101194.00;;;;4980902;27;98103;-65
2022/12/03 05:40:21;;;;;;;20.40;12.23;;;-0.50;99.90;-0.80;101201.00;;;;4990228;27;117936;-64
2022/12/03 05:42:52;;;;;;;17.87;10.87;;;-0.50;99.90;-0.80;101197.00;;;;4992816;28;106931;-66
2022/12/03 05:45:30;;;;;;;22.57;12.60;;;-0.50;99.90;-0.90;101204.00;;;;4990045;27;87560;-66
2022/12/03 05:47:58;;;;;;;19.43;11.80;;;-0.60;99.90;-0.90;101199.00;;;;4988723;27;91064;-65
2022/12/03 05:50:28;;;;;;;21.13;12.37;;;-0.40;99.90;-0.80;101198.00;;;;4988104;28;96444;-66
2022/12/03 05:52:55;;;;;;;16.50;11.60;;;-0.60;99.90;-0.80;101188.00;;;;4985473;27;88064;-65
2022/12/03 05:55:20;;;;;;;24.83;13.10;;;-0.50;99.90;-0.80;101188.00;;;;4982144;28;87767;-65
2022/12/03 05:57:47;;;;;;;20.47;12.67;;;-0.50;99.90;-0.80;101196.00;;;;4979828;27;111543;-65
2022/12/03 06:00:23;;;;;;;20.33;12.87;;;-0.50;99.90;-0.80;101200.00;;;;4988138;27;115727;-65
2022/12/03 06:02:49;;;;;;;26.77;11.47;;;-0.50;99.90;-0.90;101188.00;;;;4990682;27;89261;-64
2022/12/03 06:05:18;;;;;;;23.00;13.23;;;-0.50;99.90;-0.80;101197.00;;;;4975486;28;87831;-65
2022/12/03 06:07:44;;;;;;;26.90;12.87;;;0.40;99.90;-0.90;101202.00;;;;4981931;27;89140;-65
2022/12/03 06:10:13;;;;;;;23.20;12.93;;;-0.40;99.90;-0.80;101192.00;;;;4982688;27;111257;-65
2022/12/03 06:12:38;;;;;;;28.00;14.43;;;-0.50;99.90;-0.80;101195.00;;;;4986951;27;88162;-65
2022/12/03 06:15:05;;;;;;;23.63;12.87;;;-0.50;99.90;-0.80;101195.00;;;;4976930;28;108624;-65
2022/12/03 06:17:31;;;;;;;28.57;13.47;;;-0.50;99.90;-0.80;101191.00;;;;4987403;27;89019;-65
2022/12/03 06:19:56;;;;;;;32.97;19.27;;;-0.40;99.90;-0.80;101187.00;;;;4984992;27;118281;-64
2022/12/03 06:22:22;;;;;;;31.77;15.30;;;-0.50;99.90;-0.80;101193.00;;;;4991329;27;91616;-66
2022/12/03 06:24:49;;;;;;;21.63;13.70;;;-0.40;99.90;-0.80;101195.00;;;;4984028;27;108717;-65
2022/12/03 06:27:14;;;;;;;19.27;11.83;;;-0.40;99.90;-0.80;101186.00;;;;4989352;27;89006;-65
2022/12/03 06:29:40;;;;;;;19.10;12.80;;;-0.50;99.90;-0.80;101197.00;;;;4985216;27;116791;-65
2022/12/03 06:32:06;;;;;;;16.73;11.67;;;-0.50;99.90;-0.80;101186.00;;;;4979042;27;113475;-67
2022/12/03 06:34:32;;;;;;;24.53;14.17;;;-0.50;99.90;-0.80;101207.00;;;;4988680;27;109185;-66
2022/12/03 06:36:57;;;;;;;26.30;15.00;;;-0.40;99.90;-0.80;101204.00;;;;4978748;27;88104;-65
2022/12/03 06:39:23;;;;;;;26.13;14.37;;;-0.30;99.90;-0.80;101207.00;;;;4971794;28;117961;-67
2022/12/03 06:41:49;;;;;;;24.40;13.93;;;-0.40;99.90;-0.80;101195.00;;;;4989789;27;87824;-65
2022/12/03 06:44:14;;;;;;;18.87;11.17;;;-0.40;99.90;-0.80;101203.00;;;;4992939;27;108416;-66
2022/12/03 06:46:40;;;;;;;25.43;13.53;;;-0.50;99.90;-0.80;101192.00;;;;4988160;27;88070;-67
2022/12/03 06:49:08;;;;;;;23.20;11.87;;;-0.50;99.90;-0.80;101200.00;;;;4989510;27;116585;-65
2022/12/03 06:51:34;;;;;;;24.87;13.57;;;-0.40;99.90;-0.80;101192.00;;;;4992769;27;88728;-66
2022/12/03 06:54:01;;;;;;;26.57;13.63;;;-0.40;99.90;-0.70;101204.00;;;;4990991;27;87736;-66
2022/12/03 06:56:27;;;;;;;29.40;13.60;;;-0.40;99.90;-0.70;101195.00;;;;4984520;27;88754;-65
2022/12/03 06:58:53;;;;;;;23.73;12.93;;;-0.30;99.90;-0.70;101192.00;;;;4993165;27;97110;-65
2022/12/03 07:01:19;;;;;;;24.20;13.17;;;-0.30;99.90;-0.70;101187.00;;;;4992632;27;112572;-66
2022/12/03 07:03:45;;;;;;;27.17;13.57;;;-0.30;99.90;-0.70;101193.00;;;;4994292;27;91120;-66
2022/12/03 07:06:11;;;;;;;26.07;11.93;;;-0.30;99.90;-0.70;101204.00;;;;4986341;27;88673;-66
2022/12/03 07:08:36;;;;;;;22.03;12.90;;;-0.40;99.90;-0.70;101200.00;;;;4974861;28;87551;-66
2022/12/03 07:11:02;;;;;;;23.60;12.53;;;-1.10;99.90;-0.70;101206.00;;;;4987538;27;112491;-66
2022/12/03 07:13:28;;;;;;;22.53;12.20;;;-0.40;99.90;-0.70;101210.00;;;;4959037;28;107932;-66
2022/12/03 07:15:53;;;;;;;17.53;10.73;;;-0.50;99.90;-0.70;101205.00;;;;4983078;27;118103;-66
2022/12/03 07:18:19;;;;;;;21.97;11.23;;;-0.50;99.90;-0.70;101207.00;;;;4989602;27;93030;-66
2022/12/03 07:20:45;;;;;;;25.37;13.03;;;-0.30;99.90;-0.70;101200.00;;;;4974379;27;88075;-65
2022/12/03 07:23:10;;;;;;;20.57;12.43;;;-0.40;99.90;-0.70;101193.00;;;;4982992;27;108202;-65
2022/12/03 07:25:36;;;;;;;22.70;12.37;;;-0.30;99.90;-0.70;101192.00;;;;4990976;27;118033;-66
2022/12/03 07:28:02;;;;;;;18.60;11.87;;;-0.30;99.90;-0.70;101202.00;;;;4986591;27;115877;-67
2022/12/03 07:30:28;;;;;;;23.13;11.90;;;-0.40;99.90;-0.70;101199.00;;;;4972417;28;105266;-67
2022/12/03 07:32:54;;;;;;;20.63;12.87;;;-0.30;99.90;-0.60;101202.00;;;;4981917;27;108324;-66
2022/12/03 07:35:20;;;;;;;24.90;14.07;;;-0.40;99.90;-0.60;101185.00;;;;4971775;28;116785;-67
2022/12/03 07:37:46;;;;;;;20.43;11.13;;;-0.30;99.90;-0.60;101198.00;;;;4988536;27;90061;-65
2022/12/03 07:40:12;;;;;;;21.00;13.13;;;-0.20;99.90;-0.60;101192.00;;;;4975965;27;105411;-66
2022/12/03 07:42:38;;;;;;;21.70;12.07;;;-0.30;99.90;-0.60;101186.00;;;;4974842;28;93059;-65
2022/12/03 07:45:04;;;;;;;89.33;61.27;;;-0.30;99.90;-0.60;101192.00;;;;4983017;27;117815;-65
2022/12/03 07:47:30;;;;;;;19.90;14.23;;;-0.30;99.90;-0.60;101189.00;;;;4981183;27;87986;-68
2022/12/03 07:49:56;;;;;;;24.80;12.90;;;-0.30;99.90;-0.60;101199.00;;;;4976859;27;87733;-66
2022/12/03 07:52:22;;;;;;;18.50;10.77;;;-0.30;99.90;-0.60;101198.00;;;;4979832;27;107014;-66
2022/12/03 07:54:47;;;;;;;22.93;13.80;;;-0.30;99.90;-0.60;101192.00;;;;4980265;27;115983;-67
2022/12/03 07:57:13;;;;;;;30.27;18.23;;;-0.30;99.90;-0.60;101186.00;;;;4969194;28;117240;-65
2022/12/03 07:59:38;;;;;;;26.33;15.60;;;-0.30;99.90;-0.60;101181.00;;;;4985375;27;114357;-65
2022/12/03 08:02:05;;;;;;;24.80;15.27;;;-0.30;99.90;-0.60;101186.00;;;;4976050;27;108587;-67
2022/12/03 08:04:31;;;;;;;20.40;12.57;;;-0.20;99.90;-0.50;101181.00;;;;4977156;27;89218;-67
2022/12/03 08:06:56;;;;;;;21.80;12.17;;;-0.20;99.90;-0.50;101194.00;;;;4983722;27;103705;-67
2022/12/03 08:09:22;;;;;;;25.90;17.83;;;-0.20;99.90;-0.50;101189.00;;;;4969060;28;113105;-65
2022/12/03 08:11:48;;;;;;;31.60;14.73;;;-0.20;99.90;-0.50;101194.00;;;;4988053;27;89124;-65
2022/12/03 08:14:18;;;;;;;27.83;12.97;;;-0.20;99.90;-0.50;101199.00;;;;4992426;27;117324;-66
2022/12/03 08:16:45;;;;;;;21.67;13.30;;;-0.10;99.90;-0.50;101195.00;;;;4987975;27;88176;-65
2022/12/03 08:19:14;;;;;;;22.47;13.50;;;-0.20;99.90;-0.50;101195.00;;;;4995047;27;88512;-65
2022/12/03 08:21:40;;;;;;;18.47;12.43;;;-0.10;99.90;-0.50;101182.00;;;;4980790;27;87279;-66
2022/12/03 08:24:15;;;;;;;22.87;12.93;;;-0.10;99.90;-0.50;101194.00;;;;4976714;27;88291;-66
2022/12/03 08:26:43;;;;;;;22.10;13.93;;;-0.10;99.90;-0.50;101192.00;;;;4975951;27;87879;-66
2022/12/03 08:29:12;;;;;;;20.43;12.87;;;-0.10;99.90;-0.50;101188.00;;;;4981619;27;88726;-67
2022/12/03 08:31:38;;;;;;;18.47;11.97;;;-0.10;99.90;-0.40;101191.00;;;;4975666;28;99022;-67
2022/12/03 08:34:23;;;;;;;23.30;13.23;;;-0.10;99.90;-0.40;101181.00;;;;4969667;28;117096;-66
2022/12/03 08:36:55;;;;;;;24.80;12.70;;;0.00;99.90;-0.40;101191.00;;;;4952288;28;87999;-66
2022/12/03 08:39:54;;;;;;;23.90;13.70;;;-0.10;99.90;-0.40;101175.00;;;;4982674;27;96065;-65
2022/12/03 08:42:40;;;;;;;26.00;14.47;;;-0.10;99.90;-0.40;101185.00;;;;4975084;27;87981;-65
2022/12/03 08:45:28;;;;;;;22.57;14.77;;;-0.10;99.90;-0.40;101180.00;;;;4968424;28;89213;-65
2022/12/03 08:48:13;;;;;;;17.83;11.27;;;0.00;99.90;-0.40;101183.00;;;;4974372;28;102051;-66
2022/12/03 08:50:41;;;;;;;22.87;14.67;;;0.00;99.90;-0.40;101183.00;;;;4974068;28;106030;-67
2022/12/03 08:53:12;;;;;;;24.80;13.47;;;0.40;99.90;-0.30;101189.00;;;;4976716;27;88024;-68
2022/12/03 08:56:03;;;;;;;24.47;12.97;;;0.10;99.90;-0.30;101184.00;;;;4971350;28;112289;-68
2022/12/03 08:58:37;;;;;;;27.57;14.93;;;0.10;99.90;-0.30;101190.00;;;;4968945;27;89448;-66
2022/12/03 09:01:09;;;;;;;23.40;12.80;;;0.80;99.90;-0.30;101181.00;;;;4967262;27;106615;-66
2022/12/03 09:03:36;;;;;;;27.23;13.83;;;0.10;99.90;-0.30;101189.00;;;;4978422;27;108567;-66
2022/12/03 09:06:02;;;;;;;21.93;11.97;;;0.00;99.90;-0.20;101179.00;;;;4976529;28;88966;-67
2022/12/03 09:08:28;;;;;;;23.80;13.10;;;1.00;99.90;-0.30;101180.00;;;;4975694;27;90743;-66
2022/12/03 09:10:54;;;;;;;35.40;15.40;;;0.10;99.90;-0.30;101170.00;;;;4987134;27;113035;-65
2022/12/03 09:13:19;;;;;;;24.73;13.07;;;0.70;99.90;-0.20;101175.00;;;;4972059;28;108289;-66
2022/12/03 09:15:45;;;;;;;25.57;14.27;;;0.30;99.90;-0.20;101169.00;;;;4972842;28;89107;-67
2022/12/03 09:18:13;;;;;;;26.17;14.70;;;0.00;99.90;-0.20;101184.00;;;;4970977;27;118087;-68
2022/12/03 09:20:39;;;;;;;25.20;12.60;;;0.10;99.90;-0.20;101179.00;;;;4969766;28;88761;-65
2022/12/03 09:23:05;;;;;;;24.83;13.43;;;0.10;99.90;-0.20;101174.00;;;;4973360;27;92458;-66
2022/12/03 09:25:30;;;;;;;208.83;121.77;;;0.30;99.90;-0.20;101169.00;;;;4976423;27;93273;-66
2022/12/03 09:27:56;;;;;;;36.70;23.00;;;0.10;99.90;-0.20;101161.00;;;;4990022;27;88860;-67
2022/12/03 09:30:22;;;;;;;33.50;15.30;;;0.10;99.90;-0.10;101165.00;;;;4987246;27;115544;-68
2022/12/03 09:32:47;;;;;;;26.47;15.17;;;0.20;99.90;-0.20;101162.00;;;;4983676;27;87754;-66
2022/12/03 09:35:13;;;;;;;21.37;13.47;;;0.20;99.90;-0.10;101162.00;;;;4978781;27;117966;-67
2022/12/03 09:37:39;;;;;;;27.37;15.33;;;0.20;99.90;-0.10;101165.00;;;;4969914;28;117062;-65
2022/12/03 09:40:05;;;;;;;25.67;14.60;;;1.10;99.90;-0.10;101159.00;;;;4972770;28;113383;-65
2022/12/03 09:42:31;;;;;;;23.43;14.80;;;0.20;99.90;0.00;101166.00;;;;4976536;27;88003;-67
2022/12/03 09:44:57;;;;;;;28.00;12.73;;;0.20;99.90;0.00;101165.00;;;;4954372;28;118422;-66
2022/12/03 09:47:24;;;;;;;31.57;17.27;;;0.20;99.90;0.00;101156.00;;;;4969770;28;90096;-66
2022/12/03 09:49:50;;;;;;;21.57;14.87;;;0.40;99.90;0.10;101161.00;;;;4967396;28;87904;-65
2022/12/03 09:52:25;;;;;;;27.23;14.67;;;0.40;99.90;0.10;101160.00;;;;4968365;27;88186;-67
2022/12/03 09:54:51;;;;;;;25.93;13.53;;;0.40;99.90;0.10;101159.00;;;;4969934;28;101182;-66
2022/12/03 09:57:18;;;;;;;25.27;14.67;;;0.30;99.90;0.10;101160.00;;;;4976467;27;115563;-65
2022/12/03 09:59:44;;;;;;;23.77;14.43;;;0.40;99.90;0.00;101161.00;;;;4970339;28;113120;-65
2022/12/03 10:02:20;;;;;;;48.87;32.70;;;0.40;99.90;0.10;101155.00;;;;4967761;28;88679;-66
2022/12/03 10:04:47;;;;;;;29.67;16.50;;;0.30;99.90;0.00;101159.00;;;;4953312;28;88409;-66
2022/12/03 10:07:13;;;;;;;23.40;15.63;;;0.50;99.90;0.10;101158.00;;;;4968070;28;116025;-66
2022/12/03 10:09:38;;;;;;;31.33;16.47;;;0.30;99.90;0.10;101161.00;;;;4966302;28;100475;-66
2022/12/03 10:12:04;;;;;;;33.50;19.20;;;0.40;99.90;0.10;101170.00;;;;4968791;28;107971;-66
2022/12/03 10:14:30;;;;;;;23.53;13.80;;;0.40;99.90;0.20;101151.00;;;;4953154;28;118168;-65
2022/12/03 10:16:57;;;;;;;29.70;13.10;;;0.40;99.90;0.20;101156.00;;;;4954346;28;87881;-65
2022/12/03 10:19:27;;;;;;;24.13;13.63;;;0.40;99.90;0.10;101149.00;;;;4969278;28;96889;-65
2022/12/03 10:21:54;;;;;;;38.17;14.13;;;0.40;99.90;0.10;101156.00;;;;4967878;28;99358;-66
2022/12/03 10:24:25;;;;;;;36.73;14.33;;;0.40;99.90;0.10;101157.00;;;;4966106;28;88591;-66
2022/12/03 10:27:04;;;;;;;33.23;18.20;;;0.50;99.90;0.10;101156.00;;;;4981020;27;88629;-66
2022/12/03 10:29:34;;;;;;;74.60;42.50;;;0.50;99.90;0.20;101155.00;;;;4972200;27;97473;-66
2022/12/03 10:32:11;;;;;;;39.43;25.23;;;0.50;99.90;0.20;101146.00;;;;4974062;27;89270;-65
2022/12/03 10:34:40;;;;;;;35.37;19.83;;;0.50;99.90;0.30;101149.00;;;;4987107;27;89637;-65
2022/12/03 10:37:21;;;;;;;27.83;16.73;;;0.70;99.90;0.30;101146.00;;;;4985925;27;107131;-65
2022/12/03 10:40:00;;;;;;;36.13;18.03;;;1.00;99.90;0.30;101137.00;;;;4987072;27;112369;-65
2022/12/03 10:42:31;;;;;;;25.20;15.27;;;0.70;99.90;0.30;101139.00;;;;4986392;27;88060;-65
2022/12/03 10:45:23;;;;;;;29.73;15.67;;;0.60;99.90;0.30;101136.00;;;;4978911;27;89167;-66
2022/12/03 10:48:12;;;;;;;16.13;10.20;;;0.60;99.90;0.30;101139.00;;;;4978927;27;117073;-65
2022/12/03 10:51:14;;;;;;;35.53;16.70;;;1.60;99.90;0.30;101131.00;;;;4991852;27;89220;-65
2022/12/03 10:53:40;;;;;;;37.27;19.80;;;0.70;99.90;0.30;101136.00;;;;4982931;27;87467;-63
2022/12/03 10:56:09;;;;;;;32.87;19.10;;;0.70;99.90;0.40;101133.00;;;;4993760;27;92699;-64
2022/12/03 10:58:38;;;;;;;28.97;16.17;;;0.60;99.90;0.40;101132.00;;;;4978234;27;88017;-65
2022/12/03 11:01:15;;;;;;;53.60;31.37;;;0.30;99.90;0.40;101124.00;;;;4973403;27;92158;-65